Time;durP1;ratioP1;P1;durP2;ratioP2;P2;SDS_P1;SDS_P2;PMS_P1;PMS_P2;Temp;Humidity;BMP_temperature;BMP_pressure;BME280_temperature;BME280_humidity;BME280_pressure;Samples;Min_cycle;Max_cycle;Signal;HPM_P1;HPM_P2
2023/03/03 00:00:56;;;;;;;1.00;1.00;;;1.70;99.90;;;;;;5059471;28;20262;-78
2023/03/03 00:03:25;;;;;;;3.22;3.03;;;1.70;99.90;;;;;;5059980;28;20246;-79
2023/03/03 00:05:53;;;;;;;13.20;6.03;;;1.70;99.90;;;;;;5059911;28;20282;-79
2023/03/03 00:08:22;;;;;;;11.05;7.85;;;1.70;99.90;;;;;;5058836;28;20194;-78
2023/03/03 00:10:49;;;;;;;0.80;0.77;;;1.60;99.90;;;;;;5061037;28;20249;-79
2023/03/03 00:13:18;;;;;;;1.33;1.33;;;1.50;99.90;;;;;;5061767;28;20279;-79
2023/03/03 00:15:47;;;;;;;17.48;5.00;;;1.50;99.90;;;;;;5061584;28;20190;-79
2023/03/03 00:18:22;;;;;;;1.42;1.33;;;1.60;99.90;;;;;;5061230;28;20191;-79
2023/03/03 00:20:53;;;;;;;2.88;2.45;;;1.50;99.90;;;;;;5058545;28;20194;-79
2023/03/03 00:23:35;;;;;;;0.60;0.60;;;1.60;99.90;;;;;;5058530;28;20221;-79
2023/03/03 00:26:02;;;;;;;1.08;0.50;;;1.60;99.90;;;;;;5058798;28;20312;-79
2023/03/03 00:28:32;;;;;;;10.07;4.35;;;1.60;99.90;;;;;;5058453;28;20277;-78
2023/03/03 00:31:02;;;;;;;5.45;4.95;;;1.40;99.90;;;;;;5058255;28;20267;-79
2023/03/03 00:33:32;;;;;;;8.88;1.55;;;1.40;99.90;;;;;;5058041;28;20225;-79
2023/03/03 00:36:27;;;;;;;0.60;0.60;;;1.40;99.90;;;;;;5058180;28;20206;-79
2023/03/03 00:38:54;;;;;;;0.90;0.90;;;1.40;99.90;;;;;;5058541;28;20198;-78
2023/03/03 00:41:24;;;;;;;2.58;1.08;;;1.50;99.90;;;;;;5058627;28;20194;-76
2023/03/03 00:43:51;;;;;;;0.60;0.60;;;1.60;99.90;;;;;;5055311;28;20223;-77
2023/03/03 00:46:22;;;;;;;0.50;0.40;;;1.60;99.90;;;;;;5057297;28;20214;-81
2023/03/03 00:48:50;;;;;;;0.70;0.70;;;1.60;99.90;;;;;;5058052;28;20194;-79
2023/03/03 00:51:26;;;;;;;2.15;1.48;;;1.50;99.90;;;;;;5058236;28;20670;-78
2023/03/03 00:53:53;;;;;;;1.38;1.27;;;1.60;99.90;;;;;;5058009;28;20213;-78
2023/03/03 00:56:20;;;;;;;0.55;0.55;;;1.60;99.90;;;;;;5057989;28;20199;-79
2023/03/03 00:58:47;;;;;;;0.60;0.60;;;1.60;99.90;;;;;;5057398;28;20258;-79
2023/03/03 01:01:15;;;;;;;3.70;3.50;;;1.60;99.90;;;;;;5056937;28;20268;-78
2023/03/03 01:03:43;;;;;;;2.95;2.47;;;1.50;99.90;;;;;;5055366;28;20218;-79
2023/03/03 01:06:11;;;;;;;13.18;5.85;;;1.40;99.90;;;;;;5055027;28;20217;-78
2023/03/03 01:08:38;;;;;;;0.50;0.40;;;1.30;99.90;;;;;;5054837;28;20186;-77
2023/03/03 01:11:08;;;;;;;5.07;4.00;;;1.40;99.90;;;;;;5054488;28;20233;-77
2023/03/03 01:13:37;;;;;;;2.03;1.92;;;1.30;99.90;;;;;;5047327;28;20218;-78
2023/03/03 01:16:04;;;;;;;0.60;0.60;;;1.30;99.90;;;;;;5055549;28;20286;-77
2023/03/03 01:18:31;;;;;;;0.60;0.60;;;1.30;99.90;;;;;;5057243;28;20198;-79
2023/03/03 01:21:00;;;;;;;3.42;1.95;;;1.30;99.90;;;;;;5056366;28;20194;-79
2023/03/03 01:23:27;;;;;;;7.35;5.65;;;1.30;99.90;;;;;;5056560;28;20310;-79
2023/03/03 01:25:54;;;;;;;1.08;1.00;;;1.20;99.90;;;;;;5057058;28;20213;-78
2023/03/03 01:28:21;;;;;;;5.25;1.90;;;1.20;99.90;;;;;;5057004;28;20203;-78
2023/03/03 01:30:48;;;;;;;15.23;7.80;;;1.20;99.90;;;;;;5056507;28;20289;-79
2023/03/03 01:33:15;;;;;;;4.13;3.15;;;1.10;99.90;;;;;;5056739;28;20210;-78
2023/03/03 01:35:44;;;;;;;2.63;2.53;;;1.20;99.90;;;;;;5056531;28;20258;-79
2023/03/03 01:38:13;;;;;;;2.38;2.28;;;1.30;99.90;;;;;;5056618;28;20202;-79
2023/03/03 01:40:40;;;;;;;7.65;4.72;;;1.40;99.90;;;;;;5057519;28;20297;-79
2023/03/03 01:43:07;;;;;;;4.03;1.80;;;1.40;99.90;;;;;;5057980;28;20302;-79
2023/03/03 01:46:00;;;;;;;0.73;0.70;;;1.30;99.90;;;;;;5056958;28;20244;-79
2023/03/03 01:48:31;;;;;;;7.38;6.10;;;1.30;99.90;;;;;;5056762;28;20204;-78
2023/03/03 01:51:02;;;;;;;0.50;0.50;;;1.20;99.90;;;;;;5057424;28;20195;-78
2023/03/03 01:53:36;;;;;;;2.10;1.95;;;1.20;99.90;;;;;;5057649;28;20214;-79
2023/03/03 01:56:05;;;;;;;8.48;4.72;;;1.20;99.90;;;;;;5058547;28;20232;-79
2023/03/03 01:58:35;;;;;;;0.88;0.50;;;1.20;99.90;;;;;;5061044;28;20614;-79
2023/03/03 02:01:05;;;;;;;6.88;3.47;;;1.10;99.90;;;;;;5061411;28;20193;-79
2023/03/03 02:03:33;;;;;;;6.90;3.15;;;1.10;99.90;;;;;;5060443;28;20214;-80
2023/03/03 02:06:04;;;;;;;7.03;4.00;;;1.10;99.90;;;;;;5061779;28;20213;-79
2023/03/03 02:08:40;;;;;;;6.95;2.42;;;1.10;99.90;;;;;;5061894;28;20235;-78
2023/03/03 02:11:08;;;;;;;2.30;1.95;;;1.00;99.90;;;;;;5061091;28;20725;-78
2023/03/03 02:13:35;;;;;;;0.95;0.95;;;1.10;99.90;;;;;;5060249;28;20228;-79
2023/03/03 02:16:02;;;;;;;0.85;0.85;;;1.20;99.90;;;;;;5061468;28;20194;-79
2023/03/03 02:18:29;;;;;;;0.60;0.60;;;1.20;99.90;;;;;;5060789;28;20259;-78
2023/03/03 02:21:02;;;;;;;2.53;2.20;;;1.20;99.90;;;;;;5061338;28;20194;-79
2023/03/03 02:23:34;;;;;;;13.40;5.45;;;1.30;99.90;;;;;;5060114;28;20214;-78
2023/03/03 02:26:15;;;;;;;14.75;5.00;;;1.30;99.90;;;;;;5060831;28;20204;-78
2023/03/03 02:28:42;;;;;;;2.35;2.22;;;1.30;99.90;;;;;;5052625;28;20198;-79
2023/03/03 02:31:13;;;;;;;7.68;7.15;;;1.40;99.90;;;;;;5060157;28;20201;-78
2023/03/03 02:33:40;;;;;;;1.00;0.60;;;1.40;99.90;;;;;;5060060;28;20293;-78
2023/03/03 02:36:07;;;;;;;0.57;0.55;;;1.40;99.90;;;;;;5060112;28;20203;-79
2023/03/03 02:38:41;;;;;;;7.75;3.63;;;1.30;99.90;;;;;;5059297;28;20225;-78
2023/03/03 02:41:16;;;;;;;2.17;2.08;;;1.30;99.90;;;;;;5059851;28;20198;-78
2023/03/03 02:43:50;;;;;;;2.70;1.67;;;1.20;99.90;;;;;;5059659;28;20695;-78
2023/03/03 02:46:18;;;;;;;1.25;1.25;;;1.20;99.90;;;;;;5059636;28;20711;-77
2023/03/03 02:48:44;;;;;;;7.90;3.63;;;1.20;99.90;;;;;;5059741;28;20657;-78
2023/03/03 02:51:11;;;;;;;0.60;0.60;;;1.10;99.90;;;;;;5060181;28;20190;-78
2023/03/03 02:53:38;;;;;;;3.80;3.47;;;1.10;99.90;;;;;;5059857;28;20238;-78
2023/03/03 02:56:08;;;;;;;0.60;0.60;;;1.20;99.90;;;;;;5059813;28;20628;-78
2023/03/03 02:58:36;;;;;;;2.65;2.55;;;1.20;99.90;;;;;;5059479;28;20205;-78
2023/03/03 03:01:04;;;;;;;1.23;1.13;;;1.30;99.90;;;;;;5061546;28;20249;-78
2023/03/03 03:03:32;;;;;;;1.08;1.08;;;1.20;99.90;;;;;;5060672;28;20399;-78
2023/03/03 03:05:59;;;;;;;1.35;1.35;;;1.20;99.90;;;;;;5059169;28;20543;-77
2023/03/03 03:08:26;;;;;;;13.07;3.03;;;1.10;99.90;;;;;;5058128;28;20195;-78
2023/03/03 03:10:53;;;;;;;2.90;1.48;;;1.20;99.90;;;;;;5058311;28;20718;-79
2023/03/03 03:13:19;;;;;;;0.93;0.93;;;1.30;99.90;;;;;;5058856;28;20232;-79
2023/03/03 03:15:48;;;;;;;10.07;2.33;;;1.30;99.90;;;;;;5058760;28;20268;-78
2023/03/03 03:18:15;;;;;;;0.80;0.80;;;1.30;99.90;;;;;;5057120;28;20269;-79
2023/03/03 03:20:42;;;;;;;0.50;0.40;;;1.30;99.90;;;;;;5050454;28;20199;-78
2023/03/03 03:23:10;;;;;;;0.50;0.40;;;1.30;99.90;;;;;;5059178;28;20221;-78
2023/03/03 03:25:44;;;;;;;0.50;0.40;;;1.20;99.90;;;;;;5058533;28;20195;-78
2023/03/03 03:28:11;;;;;;;8.68;1.90;;;1.20;99.90;;;;;;5058829;28;20187;-79
2023/03/03 03:30:38;;;;;;;1.95;1.85;;;1.10;99.90;;;;;;5058591;28;20195;-78
2023/03/03 03:33:06;;;;;;;6.68;4.88;;;1.20;99.90;;;;;;5059200;28;20225;-78
2023/03/03 03:35:34;;;;;;;5.60;4.68;;;1.10;99.90;;;;;;5058006;28;20387;-78
2023/03/03 03:38:01;;;;;;;0.50;0.40;;;1.00;99.90;;;;;;5058448;28;20199;-78
2023/03/03 03:40:28;;;;;;;0.50;0.50;;;1.10;99.90;;;;;;5058306;28;20198;-78
2023/03/03 03:42:56;;;;;;;5.30;2.35;;;1.10;99.90;;;;;;5058517;28;20647;-78
2023/03/03 03:45:23;;;;;;;6.07;2.78;;;1.00;99.90;;;;;;5057963;28;20199;-80
2023/03/03 03:47:50;;;;;;;2.92;2.72;;;1.00;99.90;;;;;;5060028;28;20197;-78
2023/03/03 03:50:18;;;;;;;0.50;0.47;;;1.00;99.90;;;;;;5059104;28;20218;-78
2023/03/03 03:52:45;;;;;;;1.02;1.02;;;1.00;99.90;;;;;;5058810;28;20697;-78
2023/03/03 03:55:13;;;;;;;1.13;1.13;;;1.00;99.90;;;;;;5059076;28;20286;-78
2023/03/03 03:57:40;;;;;;;1.05;0.93;;;1.00;99.90;;;;;;5059615;28;20241;-78
2023/03/03 04:00:09;;;;;;;0.50;0.40;;;1.00;99.90;;;;;;5059490;28;20285;-78
2023/03/03 04:02:36;;;;;;;0.95;0.95;;;1.00;99.90;;;;;;5059647;28;20297;-78
2023/03/03 04:05:03;;;;;;;7.55;1.13;;;1.10;99.90;;;;;;5058669;28;20194;-78
2023/03/03 04:07:31;;;;;;;0.60;0.60;;;1.00;99.90;;;;;;5058093;28;20201;-78
2023/03/03 04:09:58;;;;;;;1.08;1.08;;;0.90;99.90;;;;;;5058485;28;20277;-78
2023/03/03 04:12:25;;;;;;;2.20;2.00;;;0.90;99.90;;;;;;5058056;28;20214;-78
2023/03/03 04:14:52;;;;;;;0.50;0.50;;;0.80;99.90;;;;;;5058414;28;20270;-78
2023/03/03 04:17:19;;;;;;;5.15;2.90;;;0.80;99.90;;;;;;5058477;28;20198;-77
2023/03/03 04:19:46;;;;;;;0.50;0.40;;;0.80;99.90;;;;;;5058067;28;20201;-78
2023/03/03 04:22:14;;;;;;;0.50;0.40;;;0.70;99.90;;;;;;5057728;28;20197;-76
2023/03/03 04:24:42;;;;;;;4.15;3.95;;;0.90;99.90;;;;;;5057684;28;20566;-78
2023/03/03 04:27:09;;;;;;;2.58;2.45;;;1.00;99.90;;;;;;5057464;28;20565;-78
2023/03/03 04:29:36;;;;;;;0.50;0.40;;;1.00;99.90;;;;;;5063820;28;20218;-77
2023/03/03 04:32:03;;;;;;;0.50;0.47;;;1.00;99.90;;;;;;5065056;28;20214;-79
2023/03/03 04:34:30;;;;;;;0.50;0.40;;;1.00;99.90;;;;;;5067876;28;20221;-78
2023/03/03 04:36:57;;;;;;;0.52;0.45;;;1.00;99.90;;;;;;5060997;28;20187;-79
2023/03/03 04:39:23;;;;;;;1.73;1.02;;;1.10;99.90;;;;;;5059613;28;20226;-78
2023/03/03 04:41:52;;;;;;;3.92;1.75;;;1.10;99.90;;;;;;5059254;28;20190;-78
2023/03/03 04:44:19;;;;;;;1.52;1.42;;;1.20;99.90;;;;;;5057877;28;20221;-78
2023/03/03 04:46:46;;;;;;;0.50;0.50;;;1.20;99.90;;;;;;5057646;28;20186;-78
2023/03/03 04:49:13;;;;;;;0.52;0.52;;;1.20;99.90;;;;;;5059089;28;20285;-78
2023/03/03 04:51:39;;;;;;;4.05;2.80;;;1.20;99.90;;;;;;5058145;28;20198;-78
2023/03/03 04:54:06;;;;;;;1.55;1.45;;;1.20;99.90;;;;;;5058721;28;20661;-78
2023/03/03 04:56:33;;;;;;;0.50;0.40;;;1.10;99.90;;;;;;5058669;28;20301;-77
2023/03/03 04:59:01;;;;;;;6.13;2.70;;;0.90;99.90;;;;;;5057801;28;20187;-78
2023/03/03 05:01:28;;;;;;;2.47;1.23;;;0.80;99.90;;;;;;5056868;28;20711;-78
2023/03/03 05:03:55;;;;;;;5.43;4.50;;;0.70;99.90;;;;;;5055784;28;20312;-79
2023/03/03 05:06:23;;;;;;;2.97;2.35;;;0.80;99.90;;;;;;5055955;28;20785;-78
2023/03/03 05:08:50;;;;;;;0.50;0.40;;;0.80;99.90;;;;;;5056482;28;20199;-78
2023/03/03 05:11:17;;;;;;;4.72;1.88;;;0.90;99.90;;;;;;5056141;28;20256;-78
2023/03/03 05:13:44;;;;;;;2.35;2.25;;;1.00;99.90;;;;;;5056519;28;20225;-78
2023/03/03 05:16:13;;;;;;;16.40;2.08;;;1.00;99.90;;;;;;5057514;28;20195;-78
2023/03/03 05:18:41;;;;;;;2.00;2.00;;;0.90;99.90;;;;;;5058516;28;20258;-79
2023/03/03 05:21:07;;;;;;;0.50;0.40;;;0.80;99.90;;;;;;5058877;28;20242;-78
2023/03/03 05:23:34;;;;;;;2.25;0.63;;;0.80;99.90;;;;;;5057287;28;20216;-78
2023/03/03 05:26:01;;;;;;;1.45;0.88;;;0.80;99.90;;;;;;5057685;28;20194;-79
2023/03/03 05:28:28;;;;;;;8.32;5.55;;;0.90;99.90;;;;;;5056830;28;20281;-79
2023/03/03 05:30:55;;;;;;;0.70;0.70;;;0.90;99.90;;;;;;5057296;28;20258;-79
2023/03/03 05:33:26;;;;;;;0.60;0.60;;;1.00;99.90;;;;;;5056799;28;20214;-78
2023/03/03 05:35:54;;;;;;;1.77;0.93;;;0.90;99.90;;;;;;5046488;28;20562;-79
2023/03/03 05:38:21;;;;;;;3.28;1.63;;;0.80;99.90;;;;;;5054792;28;20643;-77
2023/03/03 05:40:48;;;;;;;0.55;0.55;;;0.80;99.90;;;;;;5054002;28;20341;-79
2023/03/03 05:43:15;;;;;;;0.50;0.40;;;0.80;99.90;;;;;;5054400;28;20209;-78
2023/03/03 05:45:42;;;;;;;1.52;1.30;;;0.80;99.90;;;;;;5057443;28;20236;-79
2023/03/03 05:48:10;;;;;;;0.65;0.65;;;0.90;99.90;;;;;;5059017;28;20228;-79
2023/03/03 05:50:39;;;;;;;1.90;1.80;;;1.00;99.90;;;;;;5056417;28;20252;-78
2023/03/03 05:53:06;;;;;;;1.95;1.85;;;0.90;99.90;;;;;;5056246;28;20297;-78
2023/03/03 05:55:32;;;;;;;0.50;0.40;;;0.90;99.90;;;;;;5054263;28;20666;-78
2023/03/03 05:57:59;;;;;;;12.30;6.22;;;0.90;99.90;;;;;;5054434;28;20218;-77
2023/03/03 06:00:26;;;;;;;6.95;4.45;;;0.80;99.90;;;;;;5054813;28;20201;-77
2023/03/03 06:02:53;;;;;;;0.50;0.40;;;0.80;99.90;;;;;;5054186;28;20214;-77
2023/03/03 06:05:20;;;;;;;4.30;3.80;;;0.80;99.90;;;;;;5055181;28;20678;-77
2023/03/03 06:07:48;;;;;;;1.05;1.05;;;0.80;99.90;;;;;;5056535;28;20194;-79
2023/03/03 06:10:15;;;;;;;0.50;0.50;;;0.90;99.90;;;;;;5054014;28;20197;-78
2023/03/03 06:12:42;;;;;;;3.60;3.30;;;1.00;99.90;;;;;;5056433;28;20221;-79
2023/03/03 06:15:10;;;;;;;6.28;4.95;;;1.00;99.90;;;;;;5058256;28;20203;-79
2023/03/03 06:17:37;;;;;;;81.35;6.88;;;1.00;99.90;;;;;;5059021;28;20197;-79
2023/03/03 06:20:04;;;;;;;1.80;1.70;;;1.10;99.90;;;;;;5059511;28;20191;-79
2023/03/03 06:22:31;;;;;;;0.65;0.63;;;1.00;99.90;;;;;;5059579;28;20281;-78
2023/03/03 06:24:59;;;;;;;3.83;1.25;;;1.10;99.90;;;;;;5058608;28;20222;-79
2023/03/03 06:27:26;;;;;;;1.98;1.75;;;1.00;99.90;;;;;;5058408;28;20230;-80
2023/03/03 06:29:53;;;;;;;0.50;0.40;;;1.00;99.90;;;;;;5052618;28;20189;-79
2023/03/03 06:32:20;;;;;;;0.50;0.40;;;1.00;99.90;;;;;;5059990;28;20233;-79
2023/03/03 06:34:48;;;;;;;1.70;1.60;;;1.00;99.90;;;;;;5060705;28;20199;-79
2023/03/03 06:37:15;;;;;;;1.77;1.67;;;1.10;99.90;;;;;;5052666;28;20328;-80
2023/03/03 06:39:42;;;;;;;1.55;1.45;;;1.20;99.90;;;;;;5059421;28;20194;-80
2023/03/03 06:42:10;;;;;;;0.70;0.70;;;1.20;99.90;;;;;;5061906;28;20279;-80
2023/03/03 06:44:37;;;;;;;0.70;0.60;;;1.10;99.90;;;;;;5058783;28;20277;-80
2023/03/03 06:47:08;;;;;;;7.03;1.95;;;1.20;99.90;;;;;;5058809;28;20202;-80
2023/03/03 06:49:35;;;;;;;0.57;0.57;;;1.10;99.90;;;;;;5060138;28;20186;-80
2023/03/03 06:52:09;;;;;;;2.05;1.60;;;1.20;99.90;;;;;;5055901;28;20198;-80
2023/03/03 06:54:36;;;;;;;0.50;0.40;;;1.20;99.90;;;;;;5061188;28;20224;-80
2023/03/03 06:57:16;;;;;;;2.00;1.90;;;1.30;99.90;;;;;;5060419;28;20281;-80
2023/03/03 06:59:43;;;;;;;0.50;0.43;;;1.30;99.90;;;;;;5060537;28;20198;-80
2023/03/03 07:02:16;;;;;;;1.13;1.13;;;1.30;99.90;;;;;;5069371;28;20271;-81
2023/03/03 07:04:43;;;;;;;3.50;3.20;;;1.40;99.90;;;;;;5072692;28;20197;-80
2023/03/03 07:07:17;;;;;;;1.63;1.50;;;1.40;99.90;;;;;;5063576;28;20190;-80
2023/03/03 07:09:46;;;;;;;1.77;1.67;;;1.40;99.90;;;;;;5055817;28;20191;-79
2023/03/03 07:12:18;;;;;;;1.38;1.27;;;1.40;99.90;;;;;;5062717;28;20289;-78
2023/03/03 07:14:49;;;;;;;6.93;2.75;;;1.40;99.90;;;;;;5062270;28;20634;-80
2023/03/03 07:17:18;;;;;;;0.50;0.40;;;1.40;99.90;;;;;;5055503;28;20230;-79
2023/03/03 07:19:46;;;;;;;3.70;3.45;;;1.50;99.90;;;;;;5063147;28;20222;-79
2023/03/03 07:22:16;;;;;;;1.00;1.00;;;1.60;99.90;;;;;;5056474;28;20197;-78
2023/03/03 07:24:46;;;;;;;0.50;0.40;;;1.70;99.90;;;;;;5056944;28;20277;-80
2023/03/03 07:27:19;;;;;;;1.67;1.58;;;1.60;99.90;;;;;;5061429;28;20187;-80
2023/03/03 07:29:48;;;;;;;0.50;0.40;;;1.60;99.90;;;;;;5061024;28;20275;-80
2023/03/03 07:32:25;;;;;;;0.50;0.50;;;1.50;99.90;;;;;;5061094;28;20205;-81
2023/03/03 07:34:55;;;;;;;0.50;0.40;;;1.50;99.90;;;;;;5059035;28;20202;-77
2023/03/03 07:37:29;;;;;;;8.82;2.22;;;1.60;99.90;;;;;;5060793;28;20195;-78
2023/03/03 07:39:56;;;;;;;0.60;0.60;;;1.70;99.90;;;;;;5059036;28;20191;-79
2023/03/03 07:42:27;;;;;;;2.15;2.05;;;1.80;99.90;;;;;;5062382;28;20610;-80
2023/03/03 07:44:56;;;;;;;0.50;0.40;;;1.90;99.90;;;;;;5063376;28;20613;-81
2023/03/03 07:47:25;;;;;;;1.05;1.05;;;2.00;99.90;;;;;;5063494;28;20217;-80
2023/03/03 07:49:53;;;;;;;3.90;2.15;;;2.00;99.90;;;;;;5061287;28;20578;-80
2023/03/03 07:52:26;;;;;;;0.73;0.73;;;2.00;99.90;;;;;;5063970;28;20191;-80
2023/03/03 07:54:54;;;;;;;0.50;0.50;;;2.00;99.90;;;;;;5060597;28;20249;-82
2023/03/03 07:57:24;;;;;;;2.40;2.25;;;2.10;99.90;;;;;;5062193;28;20253;-80
2023/03/03 07:59:55;;;;;;;0.60;0.60;;;2.00;99.90;;;;;;5060264;28;20207;-80
2023/03/03 08:02:38;;;;;;;1.05;0.70;;;2.00;99.90;;;;;;5060685;28;20201;-80
2023/03/03 08:05:27;;;;;;;2.35;2.15;;;1.90;99.90;;;;;;5057058;28;20253;-80
2023/03/03 08:07:58;;;;;;;10.25;4.45;;;1.80;99.90;;;;;;5058487;28;20252;-80
2023/03/03 08:10:46;;;;;;;0.50;0.40;;;1.70;99.90;;;;;;5064842;28;20205;-76
2023/03/03 08:13:19;;;;;;;0.50;0.50;;;1.70;99.90;;;;;;5063269;28;20801;-80
2023/03/03 08:15:50;;;;;;;0.82;0.70;;;1.70;99.90;;;;;;5061380;28;20191;-80
2023/03/03 08:18:25;;;;;;;2.83;2.72;;;1.70;99.90;;;;;;5063547;28;20195;-80
2023/03/03 08:21:02;;;;;;;1.77;1.27;;;1.70;99.90;;;;;;5059846;28;20198;-81
2023/03/03 08:23:29;;;;;;;1.08;1.08;;;1.80;99.90;;;;;;5063768;28;20210;-80
2023/03/03 08:25:56;;;;;;;4.82;4.40;;;1.80;99.90;;;;;;5060749;28;20218;-81
2023/03/03 08:28:23;;;;;;;0.95;0.85;;;1.70;99.90;;;;;;5062283;28;20196;-77
2023/03/03 08:30:52;;;;;;;4.82;3.95;;;1.60;99.90;;;;;;5061755;28;20222;-81
2023/03/03 08:33:19;;;;;;;2.95;2.00;;;1.50;99.90;;;;;;5063601;28;20218;-80
2023/03/03 08:35:46;;;;;;;3.25;2.95;;;1.50;99.90;;;;;;5060378;28;20199;-80
2023/03/03 08:38:15;;;;;;;0.50;0.47;;;1.60;99.90;;;;;;5054978;28;20202;-81
2023/03/03 08:40:42;;;;;;;5.75;1.90;;;1.60;99.90;;;;;;5061247;28;20222;-80
2023/03/03 08:43:13;;;;;;;6.90;5.35;;;1.70;99.90;;;;;;5063122;28;20221;-80
2023/03/03 08:45:40;;;;;;;0.50;0.40;;;1.70;99.90;;;;;;5061250;28;20190;-80
2023/03/03 08:48:08;;;;;;;4.57;3.78;;;1.80;99.90;;;;;;5060092;28;20248;-79
2023/03/03 08:50:35;;;;;;;0.50;0.40;;;1.90;99.90;;;;;;5060827;28;20218;-79
2023/03/03 08:53:02;;;;;;;11.70;5.28;;;1.90;99.90;;;;;;5058658;28;20238;-80
2023/03/03 08:55:29;;;;;;;0.50;0.40;;;1.90;99.90;;;;;;5061600;28;20709;-79
2023/03/03 08:57:56;;;;;;;1.95;1.13;;;1.90;99.90;;;;;;5063248;28;20236;-79
2023/03/03 09:00:23;;;;;;;10.32;5.53;;;2.00;99.90;;;;;;5062691;28;20210;-80
2023/03/03 09:02:51;;;;;;;0.60;0.60;;;2.00;99.90;;;;;;5064855;28;20245;-79
2023/03/03 09:05:21;;;;;;;1.25;1.15;;;2.00;99.90;;;;;;5064505;28;20202;-76
2023/03/03 09:07:50;;;;;;;0.50;0.40;;;2.00;99.90;;;;;;5064537;28;20218;-79
2023/03/03 09:10:21;;;;;;;0.50;0.40;;;2.10;99.90;;;;;;5063240;28;20198;-79
2023/03/03 09:12:48;;;;;;;0.50;0.40;;;2.10;99.90;;;;;;5061868;28;20280;-79
2023/03/03 09:15:20;;;;;;;0.50;0.40;;;2.30;99.90;;;;;;5062555;28;20234;-80
2023/03/03 09:17:48;;;;;;;0.50;0.40;;;2.40;99.90;;;;;;5068931;28;20222;-79
2023/03/03 09:20:32;;;;;;;0.60;0.60;;;2.40;99.90;;;;;;5066796;28;20302;-79
2023/03/03 09:22:59;;;;;;;3.05;2.70;;;2.40;99.90;;;;;;5062314;28;20214;-80
2023/03/03 09:25:33;;;;;;;4.03;2.60;;;2.50;99.90;;;;;;5061185;28;20281;-81
2023/03/03 09:28:00;;;;;;;0.50;0.40;;;2.50;99.90;;;;;;5061147;28;20190;-80
2023/03/03 09:30:35;;;;;;;0.50;0.40;;;2.60;99.90;;;;;;5062486;28;20230;-79
2023/03/03 09:33:16;;;;;;;0.60;0.50;;;2.60;99.90;;;;;;5051693;28;20246;-79
2023/03/03 09:35:47;;;;;;;0.75;0.75;;;2.60;99.90;;;;;;5056583;28;20197;-79
2023/03/03 09:38:26;;;;;;;1.15;1.15;;;2.70;99.90;;;;;;5055427;28;20252;-79
2023/03/03 09:41:27;;;;;;;2.55;2.05;;;2.80;99.90;;;;;;5056389;28;20269;-79
2023/03/03 09:44:10;;;;;;;0.90;0.90;;;3.00;99.90;;;;;;5044707;28;20241;-81
2023/03/03 09:46:46;;;;;;;0.60;0.60;;;3.10;99.90;;;;;;5061584;28;20206;-76
2023/03/03 09:49:23;;;;;;;0.50;0.50;;;3.10;99.90;;;;;;5057473;28;20225;-80
2023/03/03 09:52:09;;;;;;;0.50;0.40;;;3.10;99.90;;;;;;5062722;28;20206;-79
2023/03/03 09:54:57;;;;;;;0.85;0.85;;;3.00;99.90;;;;;;5060978;28;20301;-78
2023/03/03 09:57:33;;;;;;;1.98;1.88;;;3.00;99.90;;;;;;5056183;28;20281;-78
2023/03/03 10:00:32;;;;;;;0.50;0.50;;;3.10;99.90;;;;;;5062051;28;20277;-79
2023/03/03 10:03:25;;;;;;;1.00;0.95;;;3.10;99.90;;;;;;5061661;28;20210;-79
2023/03/03 10:06:00;;;;;;;2.08;1.98;;;3.20;99.90;;;;;;5062051;28;20201;-79
2023/03/03 10:08:45;;;;;;;1.88;1.77;;;3.20;99.90;;;;;;5063464;28;20573;-79
2023/03/03 10:11:19;;;;;;;0.50;0.40;;;3.20;99.90;;;;;;5065544;28;20190;-79
2023/03/03 10:14:00;;;;;;;0.50;0.40;;;3.10;99.90;;;;;;5064126;28;20265;-79
2023/03/03 10:16:42;;;;;;;1.70;1.23;;;3.20;99.90;;;;;;5060638;28;20273;-76
2023/03/03 10:19:27;;;;;;;6.00;4.30;;;3.30;99.90;;;;;;5055073;28;20607;-79
2023/03/03 10:22:06;;;;;;;0.75;0.75;;;3.30;99.90;;;;;;5066547;28;20202;-80
2023/03/03 10:24:45;;;;;;;0.50;0.50;;;3.30;99.90;;;;;;5067591;28;20697;-79
2023/03/03 10:27:30;;;;;;;2.17;1.90;;;3.40;99.90;;;;;;5060333;28;20190;-78
2023/03/03 10:30:08;;;;;;;3.90;2.28;;;3.40;99.90;;;;;;5067818;28;20257;-79
2023/03/03 10:32:48;;;;;;;0.60;0.60;;;3.50;99.90;;;;;;5066838;28;20275;-80
2023/03/03 10:35:34;;;;;;;0.50;0.40;;;3.70;99.90;;;;;;5060775;28;20214;-78
2023/03/03 10:38:19;;;;;;;0.50;0.50;;;3.90;99.90;;;;;;5065943;28;20214;-78
2023/03/03 10:40:53;;;;;;;10.48;3.60;;;4.10;99.90;;;;;;5066441;28;20194;-79
2023/03/03 10:43:42;;;;;;;0.90;0.90;;;3.90;99.90;;;;;;5066483;28;20241;-79
2023/03/03 10:46:24;;;;;;;1.30;1.20;;;3.90;99.90;;;;;;5066390;28;20199;-79
2023/03/03 10:49:07;;;;;;;0.50;0.40;;;4.00;99.90;;;;;;5065858;28;20222;-78
2023/03/03 10:51:42;;;;;;;1.33;1.23;;;3.90;99.90;;;;;;5066886;28;20191;-79
2023/03/03 10:54:29;;;;;;;1.50;1.50;;;3.90;99.90;;;;;;5059165;28;20281;-79
2023/03/03 10:57:04;;;;;;;0.57;0.55;;;3.90;99.90;;;;;;5066558;28;20202;-79
2023/03/03 10:59:43;;;;;;;2.00;1.85;;;4.00;99.90;;;;;;5067217;28;20281;-78
2023/03/03 11:02:21;;;;;;;0.60;0.50;;;3.90;99.90;;;;;;5057774;28;20202;-79
2023/03/03 11:05:05;;;;;;;0.50;0.40;;;4.00;99.90;;;;;;5065868;28;20187;-78
2023/03/03 11:07:39;;;;;;;1.17;1.15;;;4.00;99.90;;;;;;5068436;28;20573;-78
2023/03/03 11:10:19;;;;;;;2.67;2.47;;;4.10;99.90;;;;;;5066253;28;20206;-79
2023/03/03 11:12:56;;;;;;;0.50;0.40;;;4.10;99.90;;;;;;5064697;28;20226;-79
2023/03/03 11:15:43;;;;;;;0.88;0.88;;;4.10;99.90;;;;;;5066014;28;20217;-79
2023/03/03 11:18:21;;;;;;;11.98;3.47;;;3.80;99.90;;;;;;5066343;28;20702;-78
2023/03/03 11:20:56;;;;;;;7.60;7.00;;;3.90;99.90;;;;;;5066348;28;20266;-79
2023/03/03 11:23:55;;;;;;;2.00;1.90;;;4.00;99.90;;;;;;5067081;28;20296;-79
2023/03/03 11:26:58;;;;;;;0.50;0.40;;;4.00;99.90;;;;;;5066771;28;20192;-78
2023/03/03 11:29:43;;;;;;;0.50;0.45;;;4.20;99.90;;;;;;5024310;28;20223;-77
2023/03/03 11:32:22;;;;;;;2.10;2.00;;;4.20;99.90;;;;;;5069917;28;20662;-81
2023/03/03 11:35:00;;;;;;;0.95;0.95;;;4.50;99.90;;;;;;5068265;28;20210;-79
2023/03/03 11:37:35;;;;;;;2.95;2.85;;;4.60;99.90;;;;;;5066712;28;20186;-80
2023/03/03 11:40:13;;;;;;;1.50;1.35;;;4.50;99.90;;;;;;5065874;28;20202;-79
2023/03/03 11:42:53;;;;;;;4.18;3.88;;;4.60;99.90;;;;;;5066644;28;20290;-78
2023/03/03 11:45:29;;;;;;;0.60;0.50;;;4.90;99.90;;;;;;5059590;28;20193;-76
2023/03/03 11:48:02;;;;;;;8.07;2.63;;;4.90;99.90;;;;;;5066816;28;20194;-79
2023/03/03 11:50:35;;;;;;;0.77;0.77;;;4.80;99.90;;;;;;5066525;28;20225;-78
2023/03/03 11:53:19;;;;;;;1.10;1.10;;;4.90;99.90;;;;;;5066774;28;20215;-79
2023/03/03 11:55:52;;;;;;;0.80;0.80;;;5.20;99.90;;;;;;5067125;28;20234;-77
2023/03/03 11:58:24;;;;;;;0.60;0.57;;;5.30;99.90;;;;;;5066582;28;20194;-80
2023/03/03 12:00:59;;;;;;;0.63;0.63;;;5.60;99.90;;;;;;5066259;28;20202;-79
2023/03/03 12:03:30;;;;;;;11.27;3.88;;;5.70;99.90;;;;;;5066674;28;20242;-81
2023/03/03 12:06:13;;;;;;;1.58;1.58;;;5.80;99.90;;;;;;5065415;28;20198;-80
2023/03/03 12:09:00;;;;;;;1.33;1.23;;;5.80;99.90;;;;;;5065959;28;20233;-79
2023/03/03 12:11:31;;;;;;;0.60;0.60;;;5.60;99.90;;;;;;5066844;28;20186;-79
2023/03/03 12:14:04;;;;;;;0.60;0.57;;;5.50;99.90;;;;;;5065819;28;20253;-80
2023/03/03 12:16:42;;;;;;;0.95;0.95;;;5.40;99.90;;;;;;5065804;28;20225;-79
2023/03/03 12:19:20;;;;;;;0.70;0.55;;;5.40;99.90;;;;;;5066391;28;20198;-79
2023/03/03 12:22:00;;;;;;;0.55;0.55;;;5.30;99.90;;;;;;5065034;28;20715;-78
2023/03/03 12:24:40;;;;;;;2.15;1.55;;;5.40;99.90;;;;;;5066451;28;20206;-79
2023/03/03 12:27:15;;;;;;;0.50;0.40;;;5.40;99.90;;;;;;5064296;28;20289;-79
2023/03/03 12:29:49;;;;;;;0.73;0.70;;;5.40;99.90;;;;;;5066086;28;20205;-79
2023/03/03 12:32:27;;;;;;;0.73;0.73;;;5.60;99.90;;;;;;5057462;28;20190;-79
2023/03/03 12:35:01;;;;;;;17.20;2.97;;;5.70;99.90;;;;;;5064924;28;20274;-80
2023/03/03 12:37:42;;;;;;;0.68;0.68;;;5.80;99.90;;;;;;5063151;28;20610;-79
2023/03/03 12:40:15;;;;;;;2.80;2.63;;;5.90;99.90;;;;;;5064618;28;20210;-80
2023/03/03 12:42:52;;;;;;;0.50;0.40;;;6.10;99.90;;;;;;5063300;28;20218;-79
2023/03/03 12:45:35;;;;;;;0.73;0.73;;;6.20;99.90;;;;;;5062557;28;20277;-77
2023/03/03 12:48:09;;;;;;;0.98;0.98;;;6.30;99.90;;;;;;5059949;28;20206;-81
2023/03/03 12:50:47;;;;;;;3.25;1.52;;;6.30;99.90;;;;;;5058840;28;20194;-81
2023/03/03 12:53:32;;;;;;;9.68;3.60;;;6.40;99.90;;;;;;5059085;28;20214;-80
2023/03/03 12:56:04;;;;;;;0.55;0.55;;;6.40;99.90;;;;;;5059525;28;20214;-81
2023/03/03 12:58:43;;;;;;;11.30;4.03;;;6.60;99.90;;;;;;5062562;28;20198;-80
2023/03/03 13:01:29;;;;;;;2.35;2.15;;;6.60;99.90;;;;;;5060836;28;20222;-80
2023/03/03 13:04:08;;;;;;;1.35;1.10;;;6.80;99.90;;;;;;5060616;28;20633;-79
2023/03/03 13:06:41;;;;;;;1.15;1.15;;;6.90;99.90;;;;;;5052215;28;20203;-80
2023/03/03 13:09:32;;;;;;;2.85;1.90;;;7.00;99.90;;;;;;5058484;28;20186;-80
2023/03/03 13:12:13;;;;;;;0.50;0.40;;;7.20;99.90;;;;;;5056147;28;20193;-80
2023/03/03 13:14:47;;;;;;;0.50;0.50;;;7.30;99.90;;;;;;5058170;28;20220;-80
2023/03/03 13:17:21;;;;;;;0.50;0.40;;;7.60;99.90;;;;;;5058249;28;20189;-79
2023/03/03 13:19:55;;;;;;;0.50;0.40;;;7.70;99.90;;;;;;5058950;28;20245;-79